sensor_id;sensor_type;location;lat;lon;timestamp;P1;durP1;ratioP1;P2;durP2;ratioP2
45476;SDS011;31958;51.756;-2.556;2023-03-01T00:01:55;6.95;;;2.88;;
45476;SDS011;31958;51.756;-2.556;2023-03-01T00:04:20;3.65;;;2.13;;
45476;SDS011;31958;51.756;-2.556;2023-03-01T00:06:46;4.13;;;1.83;;
45476;SDS011;31958;51.756;-2.556;2023-03-01T00:09:12;2.35;;;1.30;;
45476;SDS011;31958;51.756;-2.556;2023-03-01T00:11:38;1.98;;;1.20;;
45476;SDS011;31958;51.756;-2.556;2023-03-01T00:14:04;2.03;;;1.10;;
45476;SDS011;31958;51.756;-2.556;2023-03-01T00:16:31;2.45;;;1.30;;
45476;SDS011;31958;51.756;-2.556;2023-03-01T00:19:03;2.33;;;1.17;;
45476;SDS011;31958;51.756;-2.556;2023-03-01T00:21:29;3.33;;;1.30;;
45476;SDS011;31958;51.756;-2.556;2023-03-01T00:23:54;2.22;;;1.00;;
45476;SDS011;31958;51.756;-2.556;2023-03-01T00:26:24;1.50;;;0.90;;
45476;SDS011;31958;51.756;-2.556;2023-03-01T00:28:50;1.58;;;0.90;;
45476;SDS011;31958;51.756;-2.556;2023-03-01T00:31:18;2.53;;;1.10;;
45476;SDS011;31958;51.756;-2.556;2023-03-01T00:33:45;1.30;;;0.80;;
45476;SDS011;31958;51.756;-2.556;2023-03-01T00:36:12;3.45;;;0.70;;
45476;SDS011;31958;51.756;-2.556;2023-03-01T00:38:39;4.80;;;1.20;;
45476;SDS011;31958;51.756;-2.556;2023-03-01T00:41:10;2.58;;;0.90;;
45476;SDS011;31958;51.756;-2.556;2023-03-01T00:43:37;1.05;;;0.70;;
45476;SDS011;31958;51.756;-2.556;2023-03-01T00:46:03;1.23;;;0.70;;
45476;SDS011;31958;51.756;-2.556;2023-03-01T00:48:30;4.45;;;1.00;;
45476;SDS011;31958;51.756;-2.556;2023-03-01T00:50:56;1.58;;;0.82;;
45476;SDS011;31958;51.756;-2.556;2023-03-01T00:53:22;2.05;;;0.85;;
45476;SDS011;31958;51.756;-2.556;2023-03-01T00:55:47;1.15;;;0.70;;
45476;SDS011;31958;51.756;-2.556;2023-03-01T00:58:12;1.92;;;0.60;;
45476;SDS011;31958;51.756;-2.556;2023-03-01T01:00:38;2.38;;;0.70;;
45476;SDS011;31958;51.756;-2.556;2023-03-01T01:03:03;1.13;;;0.68;;
45476;SDS011;31958;51.756;-2.556;2023-03-01T01:05:29;1.75;;;0.90;;
45476;SDS011;31958;51.756;-2.556;2023-03-01T01:07:54;4.57;;;0.75;;
45476;SDS011;31958;51.756;-2.556;2023-03-01T01:10:20;1.63;;;0.80;;
45476;SDS011;31958;51.756;-2.556;2023-03-01T01:12:45;2.08;;;0.80;;
45476;SDS011;31958;51.756;-2.556;2023-03-01T01:15:11;1.73;;;0.77;;
45476;SDS011;31958;51.756;-2.556;2023-03-01T01:17:39;3.30;;;0.70;;
45476;SDS011;31958;51.756;-2.556;2023-03-01T01:20:04;2.47;;;1.02;;
45476;SDS011;31958;51.756;-2.556;2023-03-01T01:22:30;3.83;;;1.02;;
45476;SDS011;31958;51.756;-2.556;2023-03-01T01:24:55;2.10;;;0.80;;
45476;SDS011;31958;51.756;-2.556;2023-03-01T01:27:21;2.38;;;0.85;;
45476;SDS011;31958;51.756;-2.556;2023-03-01T01:29:46;2.40;;;0.90;;
45476;SDS011;31958;51.756;-2.556;2023-03-01T01:32:12;2.05;;;0.85;;
45476;SDS011;31958;51.756;-2.556;2023-03-01T01:34:37;1.27;;;0.57;;
45476;SDS011;31958;51.756;-2.556;2023-03-01T01:37:03;1.25;;;0.80;;
45476;SDS011;31958;51.756;-2.556;2023-03-01T01:39:32;2.25;;;0.80;;
45476;SDS011;31958;51.756;-2.556;2023-03-01T01:41:59;2.25;;;0.77;;
45476;SDS011;31958;51.756;-2.556;2023-03-01T01:44:26;3.35;;;0.57;;
45476;SDS011;31958;51.756;-2.556;2023-03-01T01:46:54;1.00;;;0.65;;
45476;SDS011;31958;51.756;-2.556;2023-03-01T01:54:37;1.63;;;0.90;;
45476;SDS011;31958;51.756;-2.556;2023-03-01T01:57:07;2.22;;;0.82;;
45476;SDS011;31958;51.756;-2.556;2023-03-01T01:59:35;1.67;;;0.82;;
45476;SDS011;31958;51.756;-2.556;2023-03-01T02:02:02;1.30;;;0.80;;
45476;SDS011;31958;51.756;-2.556;2023-03-01T02:04:29;4.47;;;0.90;;
45476;SDS011;31958;51.756;-2.556;2023-03-01T02:07:00;1.70;;;0.98;;
45476;SDS011;31958;51.756;-2.556;2023-03-01T02:09:28;2.22;;;0.80;;
45476;SDS011;31958;51.756;-2.556;2023-03-01T02:11:55;1.33;;;0.73;;
45476;SDS011;31958;51.756;-2.556;2023-03-01T02:14:21;3.55;;;0.77;;
45476;SDS011;31958;51.756;-2.556;2023-03-01T02:16:46;0.93;;;0.60;;
45476;SDS011;31958;51.756;-2.556;2023-03-01T02:19:14;3.03;;;0.90;;
45476;SDS011;31958;51.756;-2.556;2023-03-01T02:21:52;1.92;;;0.77;;
45476;SDS011;31958;51.756;-2.556;2023-03-01T02:24:28;2.85;;;0.77;;
45476;SDS011;31958;51.756;-2.556;2023-03-01T02:26:58;3.90;;;0.97;;
45476;SDS011;31958;51.756;-2.556;2023-03-01T02:29:24;2.53;;;0.95;;
45476;SDS011;31958;51.756;-2.556;2023-03-01T02:31:49;0.85;;;0.55;;
45476;SDS011;31958;51.756;-2.556;2023-03-01T02:34:18;3.03;;;1.10;;
45476;SDS011;31958;51.756;-2.556;2023-03-01T02:36:47;1.48;;;0.88;;
45476;SDS011;31958;51.756;-2.556;2023-03-01T02:39:18;3.33;;;1.10;;
45476;SDS011;31958;51.756;-2.556;2023-03-01T02:41:49;3.03;;;1.00;;
45476;SDS011;31958;51.756;-2.556;2023-03-01T02:44:16;2.75;;;1.10;;
45476;SDS011;31958;51.756;-2.556;2023-03-01T02:46:49;1.58;;;0.95;;
45476;SDS011;31958;51.756;-2.556;2023-03-01T02:49:21;3.83;;;1.30;;
45476;SDS011;31958;51.756;-2.556;2023-03-01T02:52:04;2.65;;;0.90;;
45476;SDS011;31958;51.756;-2.556;2023-03-01T02:54:39;1.80;;;1.00;;
45476;SDS011;31958;51.756;-2.556;2023-03-01T02:57:05;1.77;;;1.00;;
45476;SDS011;31958;51.756;-2.556;2023-03-01T02:59:31;3.78;;;1.13;;
45476;SDS011;31958;51.756;-2.556;2023-03-01T03:02:04;3.20;;;1.08;;
45476;SDS011;31958;51.756;-2.556;2023-03-01T03:04:30;3.05;;;1.10;;
45476;SDS011;31958;51.756;-2.556;2023-03-01T03:06:55;2.63;;;1.00;;
45476;SDS011;31958;51.756;-2.556;2023-03-01T03:09:20;2.38;;;1.20;;
45476;SDS011;31958;51.756;-2.556;2023-03-01T03:11:46;2.33;;;1.38;;
45476;SDS011;31958;51.756;-2.556;2023-03-01T03:14:12;8.02;;;1.30;;
45476;SDS011;31958;51.756;-2.556;2023-03-01T03:16:40;1.60;;;1.00;;
45476;SDS011;31958;51.756;-2.556;2023-03-01T03:19:09;2.42;;;0.95;;
45476;SDS011;31958;51.756;-2.556;2023-03-01T03:21:35;3.92;;;1.45;;
45476;SDS011;31958;51.756;-2.556;2023-03-01T03:24:01;3.90;;;1.50;;
45476;SDS011;31958;51.756;-2.556;2023-03-01T03:26:26;2.33;;;1.30;;
45476;SDS011;31958;51.756;-2.556;2023-03-01T03:28:52;4.22;;;1.50;;
45476;SDS011;31958;51.756;-2.556;2023-03-01T03:31:17;2.92;;;1.85;;
45476;SDS011;31958;51.756;-2.556;2023-03-01T03:33:43;4.13;;;1.30;;
45476;SDS011;31958;51.756;-2.556;2023-03-01T03:36:08;3.85;;;1.38;;
45476;SDS011;31958;51.756;-2.556;2023-03-01T03:38:38;1.38;;;1.00;;
45476;SDS011;31958;51.756;-2.556;2023-03-01T03:41:05;4.68;;;1.60;;
45476;SDS011;31958;51.756;-2.556;2023-03-01T03:43:33;3.50;;;1.40;;
45476;SDS011;31958;51.756;-2.556;2023-03-01T03:46:00;3.00;;;1.65;;
45476;SDS011;31958;51.756;-2.556;2023-03-01T03:48:30;3.55;;;1.42;;
45476;SDS011;31958;51.756;-2.556;2023-03-01T03:50:59;2.78;;;1.38;;
45476;SDS011;31958;51.756;-2.556;2023-03-01T03:53:25;6.20;;;1.50;;
45476;SDS011;31958;51.756;-2.556;2023-03-01T03:55:51;4.03;;;1.70;;
45476;SDS011;31958;51.756;-2.556;2023-03-01T03:58:18;2.90;;;1.33;;
45476;SDS011;31958;51.756;-2.556;2023-03-01T04:00:45;3.72;;;1.70;;
45476;SDS011;31958;51.756;-2.556;2023-03-01T04:03:12;3.08;;;1.33;;
45476;SDS011;31958;51.756;-2.556;2023-03-01T04:05:39;2.67;;;1.05;;
45476;SDS011;31958;51.756;-2.556;2023-03-01T04:08:05;3.55;;;1.40;;
45476;SDS011;31958;51.756;-2.556;2023-03-01T04:10:36;3.65;;;1.50;;
45476;SDS011;31958;51.756;-2.556;2023-03-01T04:13:04;3.08;;;1.35;;
45476;SDS011;31958;51.756;-2.556;2023-03-01T04:15:30;2.33;;;1.42;;
45476;SDS011;31958;51.756;-2.556;2023-03-01T04:17:56;3.25;;;1.52;;
45476;SDS011;31958;51.756;-2.556;2023-03-01T04:20:23;2.20;;;1.25;;
45476;SDS011;31958;51.756;-2.556;2023-03-01T04:22:49;2.90;;;1.20;;
45476;SDS011;31958;51.756;-2.556;2023-03-01T04:25:16;5.50;;;1.55;;
45476;SDS011;31958;51.756;-2.556;2023-03-01T04:27:41;2.40;;;1.38;;
45476;SDS011;31958;51.756;-2.556;2023-03-01T04:30:07;3.35;;;1.60;;
45476;SDS011;31958;51.756;-2.556;2023-03-01T04:32:33;2.38;;;1.48;;
45476;SDS011;31958;51.756;-2.556;2023-03-01T04:34:58;3.63;;;1.55;;
45476;SDS011;31958;51.756;-2.556;2023-03-01T04:37:24;3.78;;;1.90;;
45476;SDS011;31958;51.756;-2.556;2023-03-01T04:39:50;2.72;;;1.60;;
45476;SDS011;31958;51.756;-2.556;2023-03-01T04:42:15;4.03;;;1.90;;
45476;SDS011;31958;51.756;-2.556;2023-03-01T04:44:42;7.38;;;2.13;;
45476;SDS011;31958;51.756;-2.556;2023-03-01T04:47:08;4.95;;;1.88;;
45476;SDS011;31958;51.756;-2.556;2023-03-01T04:49:33;3.13;;;1.77;;
45476;SDS011;31958;51.756;-2.556;2023-03-01T04:51:59;3.72;;;1.67;;
45476;SDS011;31958;51.756;-2.556;2023-03-01T04:54:27;3.25;;;1.83;;
45476;SDS011;31958;51.756;-2.556;2023-03-01T04:56:53;6.13;;;2.30;;
45476;SDS011;31958;51.756;-2.556;2023-03-01T04:59:19;3.55;;;2.03;;
45476;SDS011;31958;51.756;-2.556;2023-03-01T05:01:48;4.13;;;1.70;;
45476;SDS011;31958;51.756;-2.556;2023-03-01T05:04:14;3.40;;;1.60;;
45476;SDS011;31958;51.756;-2.556;2023-03-01T05:06:39;3.25;;;1.42;;
45476;SDS011;31958;51.756;-2.556;2023-03-01T05:09:05;2.92;;;1.65;;
45476;SDS011;31958;51.756;-2.556;2023-03-01T05:11:30;6.13;;;1.80;;
45476;SDS011;31958;51.756;-2.556;2023-03-01T05:14:00;3.08;;;1.60;;
45476;SDS011;31958;51.756;-2.556;2023-03-01T05:16:29;5.82;;;1.85;;
45476;SDS011;31958;51.756;-2.556;2023-03-01T05:18:55;4.00;;;1.45;;
45476;SDS011;31958;51.756;-2.556;2023-03-01T05:21:21;2.83;;;1.50;;
45476;SDS011;31958;51.756;-2.556;2023-03-01T05:23:47;3.67;;;1.77;;
45476;SDS011;31958;51.756;-2.556;2023-03-01T05:26:13;5.32;;;1.67;;
45476;SDS011;31958;51.756;-2.556;2023-03-01T05:28:38;5.45;;;2.00;;
45476;SDS011;31958;51.756;-2.556;2023-03-01T05:31:04;4.13;;;1.60;;
45476;SDS011;31958;51.756;-2.556;2023-03-01T05:33:35;8.95;;;2.00;;
45476;SDS011;31958;51.756;-2.556;2023-03-01T05:36:05;4.65;;;1.65;;
45476;SDS011;31958;51.756;-2.556;2023-03-01T05:38:34;3.20;;;1.38;;
45476;SDS011;31958;51.756;-2.556;2023-03-01T05:41:00;4.03;;;1.65;;
45476;SDS011;31958;51.756;-2.556;2023-03-01T05:43:25;4.68;;;1.35;;
45476;SDS011;31958;51.756;-2.556;2023-03-01T05:45:51;2.92;;;1.30;;
45476;SDS011;31958;51.756;-2.556;2023-03-01T05:48:16;6.22;;;1.95;;
45476;SDS011;31958;51.756;-2.556;2023-03-01T05:50:44;6.00;;;1.80;;
45476;SDS011;31958;51.756;-2.556;2023-03-01T05:55:42;2.60;;;1.45;;
45476;SDS011;31958;51.756;-2.556;2023-03-01T05:58:13;4.28;;;2.10;;
45476;SDS011;31958;51.756;-2.556;2023-03-01T06:00:40;5.53;;;2.88;;
45476;SDS011;31958;51.756;-2.556;2023-03-01T06:03:06;4.97;;;1.20;;
45476;SDS011;31958;51.756;-2.556;2023-03-01T06:05:31;4.35;;;1.95;;
45476;SDS011;31958;51.756;-2.556;2023-03-01T06:08:00;5.93;;;2.17;;
45476;SDS011;31958;51.756;-2.556;2023-03-01T06:10:26;5.00;;;1.60;;
45476;SDS011;31958;51.756;-2.556;2023-03-01T06:12:51;5.68;;;2.35;;
45476;SDS011;31958;51.756;-2.556;2023-03-01T06:15:17;3.38;;;2.03;;
45476;SDS011;31958;51.756;-2.556;2023-03-01T06:17:44;3.67;;;1.40;;
45476;SDS011;31958;51.756;-2.556;2023-03-01T06:22:38;7.03;;;2.25;;
45476;SDS011;31958;51.756;-2.556;2023-03-01T06:25:04;6.72;;;2.30;;
45476;SDS011;31958;51.756;-2.556;2023-03-01T06:27:30;5.65;;;1.98;;
45476;SDS011;31958;51.756;-2.556;2023-03-01T06:29:55;4.68;;;2.03;;
45476;SDS011;31958;51.756;-2.556;2023-03-01T06:32:21;2.92;;;1.70;;
45476;SDS011;31958;51.756;-2.556;2023-03-01T06:34:47;5.15;;;1.90;;
45476;SDS011;31958;51.756;-2.556;2023-03-01T06:37:12;7.20;;;2.35;;
45476;SDS011;31958;51.756;-2.556;2023-03-01T06:39:37;5.45;;;2.03;;
45476;SDS011;31958;51.756;-2.556;2023-03-01T06:42:04;7.10;;;1.75;;
45476;SDS011;31958;51.756;-2.556;2023-03-01T06:44:29;7.03;;;2.42;;
45476;SDS011;31958;51.756;-2.556;2023-03-01T06:46:54;3.50;;;1.73;;
45476;SDS011;31958;51.756;-2.556;2023-03-01T06:49:20;2.95;;;1.50;;
45476;SDS011;31958;51.756;-2.556;2023-03-01T06:51:46;6.50;;;2.22;;
45476;SDS011;31958;51.756;-2.556;2023-03-01T06:54:11;6.82;;;1.95;;
45476;SDS011;31958;51.756;-2.556;2023-03-01T06:56:37;6.55;;;1.55;;
45476;SDS011;31958;51.756;-2.556;2023-03-01T06:59:02;6.00;;;1.77;;
45476;SDS011;31958;51.756;-2.556;2023-03-01T07:01:29;4.80;;;1.48;;
45476;SDS011;31958;51.756;-2.556;2023-03-01T07:03:55;3.25;;;1.40;;
45476;SDS011;31958;51.756;-2.556;2023-03-01T07:06:21;2.75;;;1.15;;
45476;SDS011;31958;51.756;-2.556;2023-03-01T07:08:47;6.38;;;2.42;;
45476;SDS011;31958;51.756;-2.556;2023-03-01T07:11:12;5.00;;;1.50;;
45476;SDS011;31958;51.756;-2.556;2023-03-01T07:13:38;6.95;;;1.52;;
45476;SDS011;31958;51.756;-2.556;2023-03-01T07:16:03;4.80;;;1.77;;
45476;SDS011;31958;51.756;-2.556;2023-03-01T07:18:29;9.75;;;1.80;;
45476;SDS011;31958;51.756;-2.556;2023-03-01T07:20:54;4.97;;;2.42;;
45476;SDS011;31958;51.756;-2.556;2023-03-01T07:23:20;6.75;;;2.10;;
45476;SDS011;31958;51.756;-2.556;2023-03-01T07:25:54;7.07;;;2.25;;
45476;SDS011;31958;51.756;-2.556;2023-03-01T07:28:20;3.75;;;2.03;;
45476;SDS011;31958;51.756;-2.556;2023-03-01T07:30:48;6.68;;;2.05;;
45476;SDS011;31958;51.756;-2.556;2023-03-01T07:33:13;4.97;;;2.05;;
45476;SDS011;31958;51.756;-2.556;2023-03-01T07:35:38;11.73;;;2.33;;
45476;SDS011;31958;51.756;-2.556;2023-03-01T07:38:04;7.40;;;2.40;;
45476;SDS011;31958;51.756;-2.556;2023-03-01T07:40:29;3.80;;;2.22;;
45476;SDS011;31958;51.756;-2.556;2023-03-01T07:42:55;5.00;;;1.88;;
45476;SDS011;31958;51.756;-2.556;2023-03-01T07:45:21;10.75;;;2.70;;
45476;SDS011;31958;51.756;-2.556;2023-03-01T07:47:47;5.43;;;2.00;;
45476;SDS011;31958;51.756;-2.556;2023-03-01T07:50:12;7.13;;;2.10;;
45476;SDS011;31958;51.756;-2.556;2023-03-01T07:52:38;4.65;;;2.25;;
45476;SDS011;31958;51.756;-2.556;2023-03-01T07:55:04;4.95;;;2.10;;
45476;SDS011;31958;51.756;-2.556;2023-03-01T07:57:29;5.55;;;2.00;;
45476;SDS011;31958;51.756;-2.556;2023-03-01T07:59:55;6.53;;;1.65;;
45476;SDS011;31958;51.756;-2.556;2023-03-01T08:02:20;5.95;;;1.80;;
45476;SDS011;31958;51.756;-2.556;2023-03-01T08:04:46;3.90;;;2.13;;
45476;SDS011;31958;51.756;-2.556;2023-03-01T08:07:11;3.40;;;2.00;;
45476;SDS011;31958;51.756;-2.556;2023-03-01T08:09:37;3.25;;;2.08;;
45476;SDS011;31958;51.756;-2.556;2023-03-01T08:12:03;3.55;;;1.48;;
45476;SDS011;31958;51.756;-2.556;2023-03-01T08:14:29;4.88;;;2.20;;
45476;SDS011;31958;51.756;-2.556;2023-03-01T08:16:56;3.95;;;2.17;;
45476;SDS011;31958;51.756;-2.556;2023-03-01T08:19:21;7.82;;;1.92;;
45476;SDS011;31958;51.756;-2.556;2023-03-01T08:21:46;3.00;;;1.15;;
45476;SDS011;31958;51.756;-2.556;2023-03-01T08:24:12;5.55;;;2.30;;
45476;SDS011;31958;51.756;-2.556;2023-03-01T08:26:37;4.82;;;2.40;;
45476;SDS011;31958;51.756;-2.556;2023-03-01T08:29:03;5.97;;;2.72;;
45476;SDS011;31958;51.756;-2.556;2023-03-01T08:31:35;4.85;;;2.80;;
45476;SDS011;31958;51.756;-2.556;2023-03-01T08:34:06;5.45;;;2.15;;
45476;SDS011;31958;51.756;-2.556;2023-03-01T08:36:35;8.00;;;2.63;;
45476;SDS011;31958;51.756;-2.556;2023-03-01T08:39:02;5.03;;;2.60;;
45476;SDS011;31958;51.756;-2.556;2023-03-01T08:41:28;5.07;;;2.28;;
45476;SDS011;31958;51.756;-2.556;2023-03-01T08:43:53;6.75;;;2.33;;
45476;SDS011;31958;51.756;-2.556;2023-03-01T08:46:23;4.97;;;2.38;;
45476;SDS011;31958;51.756;-2.556;2023-03-01T08:48:59;6.10;;;2.50;;
45476;SDS011;31958;51.756;-2.556;2023-03-01T08:51:25;4.97;;;1.98;;
45476;SDS011;31958;51.756;-2.556;2023-03-01T08:53:51;4.50;;;2.08;;
45476;SDS011;31958;51.756;-2.556;2023-03-01T08:56:17;3.67;;;2.05;;
45476;SDS011;31958;51.756;-2.556;2023-03-01T08:58:47;2.80;;;1.60;;
45476;SDS011;31958;51.756;-2.556;2023-03-01T09:01:14;3.85;;;1.65;;
45476;SDS011;31958;51.756;-2.556;2023-03-01T09:03:41;3.83;;;1.90;;
45476;SDS011;31958;51.756;-2.556;2023-03-01T09:06:07;6.60;;;1.90;;
45476;SDS011;31958;51.756;-2.556;2023-03-01T09:08:51;2.67;;;1.52;;
45476;SDS011;31958;51.756;-2.556;2023-03-01T09:11:18;3.65;;;1.48;;
45476;SDS011;31958;51.756;-2.556;2023-03-01T09:13:45;2.42;;;1.23;;
45476;SDS011;31958;51.756;-2.556;2023-03-01T09:16:12;5.07;;;1.80;;
45476;SDS011;31958;51.756;-2.556;2023-03-01T09:18:39;2.55;;;1.50;;
45476;SDS011;31958;51.756;-2.556;2023-03-01T09:21:12;3.85;;;1.70;;
45476;SDS011;31958;51.756;-2.556;2023-03-01T09:23:43;3.80;;;1.75;;
45476;SDS011;31958;51.756;-2.556;2023-03-01T09:26:10;2.92;;;1.50;;
45476;SDS011;31958;51.756;-2.556;2023-03-01T09:28:37;3.65;;;1.48;;
45476;SDS011;31958;51.756;-2.556;2023-03-01T09:31:03;3.75;;;1.67;;
45476;SDS011;31958;51.756;-2.556;2023-03-01T09:33:30;3.50;;;1.65;;
45476;SDS011;31958;51.756;-2.556;2023-03-01T09:35:59;4.13;;;1.80;;
45476;SDS011;31958;51.756;-2.556;2023-03-01T09:38:26;3.38;;;1.50;;
45476;SDS011;31958;51.756;-2.556;2023-03-01T09:40:52;2.75;;;1.50;;
45476;SDS011;31958;51.756;-2.556;2023-03-01T09:46:18;2.17;;;1.10;;
45476;SDS011;31958;51.756;-2.556;2023-03-01T09:48:48;4.13;;;1.63;;
45476;SDS011;31958;51.756;-2.556;2023-03-01T09:51:32;4.80;;;1.50;;
45476;SDS011;31958;51.756;-2.556;2023-03-01T09:54:00;3.08;;;1.30;;
45476;SDS011;31958;51.756;-2.556;2023-03-01T09:56:32;2.95;;;1.67;;
45476;SDS011;31958;51.756;-2.556;2023-03-01T09:59:14;2.72;;;1.33;;
45476;SDS011;31958;51.756;-2.556;2023-03-01T10:04:28;2.53;;;1.25;;
45476;SDS011;31958;51.756;-2.556;2023-03-01T10:07:20;2.80;;;1.50;;
45476;SDS011;31958;51.756;-2.556;2023-03-01T10:09:51;2.65;;;1.40;;
45476;SDS011;31958;51.756;-2.556;2023-03-01T10:12:18;3.22;;;1.20;;
45476;SDS011;31958;51.756;-2.556;2023-03-01T10:14:58;5.90;;;1.45;;
45476;SDS011;31958;51.756;-2.556;2023-03-01T10:22:46;2.63;;;1.20;;
45476;SDS011;31958;51.756;-2.556;2023-03-01T10:28:43;2.97;;;1.13;;
45476;SDS011;31958;51.756;-2.556;2023-03-01T10:34:02;3.10;;;1.30;;
45476;SDS011;31958;51.756;-2.556;2023-03-01T10:36:32;3.72;;;1.40;;
45476;SDS011;31958;51.756;-2.556;2023-03-01T10:38:58;5.38;;;1.45;;
45476;SDS011;31958;51.756;-2.556;2023-03-01T10:41:25;3.53;;;1.20;;
45476;SDS011;31958;51.756;-2.556;2023-03-01T10:49:22;3.35;;;1.63;;
45476;SDS011;31958;51.756;-2.556;2023-03-01T10:51:47;2.88;;;1.73;;
45476;SDS011;31958;51.756;-2.556;2023-03-01T10:54:18;3.35;;;2.03;;
45476;SDS011;31958;51.756;-2.556;2023-03-01T10:56:53;3.60;;;2.10;;
45476;SDS011;31958;51.756;-2.556;2023-03-01T10:59:31;4.30;;;2.08;;
45476;SDS011;31958;51.756;-2.556;2023-03-01T11:04:57;4.10;;;1.67;;
45476;SDS011;31958;51.756;-2.556;2023-03-01T11:07:24;5.35;;;2.20;;
45476;SDS011;31958;51.756;-2.556;2023-03-01T11:09:50;3.05;;;1.67;;
45476;SDS011;31958;51.756;-2.556;2023-03-01T11:12:15;4.70;;;1.88;;
45476;SDS011;31958;51.756;-2.556;2023-03-01T11:14:49;4.75;;;2.08;;
45476;SDS011;31958;51.756;-2.556;2023-03-01T11:20:16;3.17;;;1.83;;
45476;SDS011;31958;51.756;-2.556;2023-03-01T11:23:04;3.78;;;2.25;;
45476;SDS011;31958;51.756;-2.556;2023-03-01T11:25:35;2.33;;;1.50;;
45476;SDS011;31958;51.756;-2.556;2023-03-01T11:28:04;3.60;;;1.65;;
45476;SDS011;31958;51.756;-2.556;2023-03-01T11:35:32;4.53;;;1.58;;
45476;SDS011;31958;51.756;-2.556;2023-03-01T11:43:15;2.80;;;1.40;;
45476;SDS011;31958;51.756;-2.556;2023-03-01T11:50:55;2.88;;;1.60;;
45476;SDS011;31958;51.756;-2.556;2023-03-01T11:59:17;3.75;;;1.88;;
45476;SDS011;31958;51.756;-2.556;2023-03-01T12:07:05;3.05;;;1.80;;
45476;SDS011;31958;51.756;-2.556;2023-03-01T12:15:20;4.18;;;1.80;;
45476;SDS011;31958;51.756;-2.556;2023-03-01T12:23:25;2.88;;;1.45;;
45476;SDS011;31958;51.756;-2.556;2023-03-01T12:32:24;3.35;;;1.20;;
45476;SDS011;31958;51.756;-2.556;2023-03-01T12:37:36;3.35;;;1.60;;
45476;SDS011;31958;51.756;-2.556;2023-03-01T12:51:30;2.00;;;1.17;;
45476;SDS011;31958;51.756;-2.556;2023-03-01T12:53:57;1.85;;;1.05;;
45476;SDS011;31958;51.756;-2.556;2023-03-01T12:56:25;3.70;;;1.77;;
45476;SDS011;31958;51.756;-2.556;2023-03-01T13:07:20;6.85;;;2.50;;
45476;SDS011;31958;51.756;-2.556;2023-03-01T13:12:42;5.03;;;2.30;;
45476;SDS011;31958;51.756;-2.556;2023-03-01T13:17:48;6.93;;;2.33;;
45476;SDS011;31958;51.756;-2.556;2023-03-01T13:23:40;5.20;;;2.50;;
45476;SDS011;31958;51.756;-2.556;2023-03-01T13:28:57;2.60;;;1.50;;
45476;SDS011;31958;51.756;-2.556;2023-03-01T13:33:54;5.97;;;2.90;;
45476;SDS011;31958;51.756;-2.556;2023-03-01T13:44:24;3.22;;;2.08;;
45476;SDS011;31958;51.756;-2.556;2023-03-01T13:47:14;5.07;;;2.00;;
45476;SDS011;31958;51.756;-2.556;2023-03-01T13:54:53;2.08;;;1.30;;
45476;SDS011;31958;51.756;-2.556;2023-03-01T13:57:21;4.03;;;1.70;;
45476;SDS011;31958;51.756;-2.556;2023-03-01T13:59:50;3.10;;;1.60;;
45476;SDS011;31958;51.756;-2.556;2023-03-01T14:02:15;3.60;;;1.60;;
45476;SDS011;31958;51.756;-2.556;2023-03-01T14:04:41;7.18;;;1.77;;
45476;SDS011;31958;51.756;-2.556;2023-03-01T14:07:17;3.53;;;1.45;;
45476;SDS011;31958;51.756;-2.556;2023-03-01T14:09:52;2.45;;;1.30;;
45476;SDS011;31958;51.756;-2.556;2023-03-01T14:15:34;2.42;;;1.30;;
45476;SDS011;31958;51.756;-2.556;2023-03-01T14:20:47;3.75;;;1.40;;
45476;SDS011;31958;51.756;-2.556;2023-03-01T14:23:25;2.72;;;1.52;;
45476;SDS011;31958;51.756;-2.556;2023-03-01T14:25:55;2.38;;;1.50;;
45476;SDS011;31958;51.756;-2.556;2023-03-01T14:28:29;4.57;;;1.90;;
45476;SDS011;31958;51.756;-2.556;2023-03-01T14:30:57;3.70;;;1.80;;
45476;SDS011;31958;51.756;-2.556;2023-03-01T14:33:25;4.80;;;1.80;;
45476;SDS011;31958;51.756;-2.556;2023-03-01T14:36:12;3.75;;;2.20;;
45476;SDS011;31958;51.756;-2.556;2023-03-01T14:38:40;3.97;;;1.83;;
45476;SDS011;31958;51.756;-2.556;2023-03-01T14:43:43;2.05;;;1.17;;
45476;SDS011;31958;51.756;-2.556;2023-03-01T14:46:26;3.58;;;1.65;;
45476;SDS011;31958;51.756;-2.556;2023-03-01T14:48:56;4.07;;;1.63;;
45476;SDS011;31958;51.756;-2.556;2023-03-01T14:51:26;4.50;;;2.00;;
45476;SDS011;31958;51.756;-2.556;2023-03-01T14:53:51;4.10;;;1.33;;
45476;SDS011;31958;51.756;-2.556;2023-03-01T14:56:17;4.82;;;1.88;;
45476;SDS011;31958;51.756;-2.556;2023-03-01T14:58:43;4.72;;;1.98;;
45476;SDS011;31958;51.756;-2.556;2023-03-01T15:01:10;3.47;;;1.67;;
45476;SDS011;31958;51.756;-2.556;2023-03-01T15:03:40;5.40;;;1.75;;
45476;SDS011;31958;51.756;-2.556;2023-03-01T15:06:10;5.05;;;1.73;;
45476;SDS011;31958;51.756;-2.556;2023-03-01T15:08:44;3.75;;;1.60;;
45476;SDS011;31958;51.756;-2.556;2023-03-01T15:13:49;5.82;;;1.63;;
45476;SDS011;31958;51.756;-2.556;2023-03-01T15:16:20;3.22;;;1.50;;
45476;SDS011;31958;51.756;-2.556;2023-03-01T15:18:51;5.35;;;1.50;;
45476;SDS011;31958;51.756;-2.556;2023-03-01T15:21:20;5.85;;;1.80;;
45476;SDS011;31958;51.756;-2.556;2023-03-01T15:23:55;3.25;;;1.38;;
45476;SDS011;31958;51.756;-2.556;2023-03-01T15:26:40;5.95;;;1.90;;
45476;SDS011;31958;51.756;-2.556;2023-03-01T15:29:11;4.38;;;2.15;;
45476;SDS011;31958;51.756;-2.556;2023-03-01T15:31:42;6.53;;;1.90;;
45476;SDS011;31958;51.756;-2.556;2023-03-01T15:34:29;8.35;;;2.30;;
45476;SDS011;31958;51.756;-2.556;2023-03-01T15:36:55;5.35;;;1.60;;
45476;SDS011;31958;51.756;-2.556;2023-03-01T15:39:33;2.83;;;1.60;;
45476;SDS011;31958;51.756;-2.556;2023-03-01T15:42:02;4.05;;;1.90;;
45476;SDS011;31958;51.756;-2.556;2023-03-01T15:44:40;5.95;;;2.03;;
45476;SDS011;31958;51.756;-2.556;2023-03-01T15:47:23;5.03;;;1.77;;
45476;SDS011;31958;51.756;-2.556;2023-03-01T15:49:51;3.55;;;1.70;;
45476;SDS011;31958;51.756;-2.556;2023-03-01T15:52:21;6.68;;;1.75;;
45476;SDS011;31958;51.756;-2.556;2023-03-01T15:55:04;3.25;;;1.52;;
45476;SDS011;31958;51.756;-2.556;2023-03-01T15:57:31;4.07;;;1.20;;
45476;SDS011;31958;51.756;-2.556;2023-03-01T15:59:57;4.10;;;1.42;;
45476;SDS011;31958;51.756;-2.556;2023-03-01T16:02:23;5.40;;;1.60;;
45476;SDS011;31958;51.756;-2.556;2023-03-01T16:04:49;5.00;;;1.65;;
45476;SDS011;31958;51.756;-2.556;2023-03-01T16:07:15;4.20;;;1.42;;
45476;SDS011;31958;51.756;-2.556;2023-03-01T16:09:41;6.60;;;1.42;;
45476;SDS011;31958;51.756;-2.556;2023-03-01T16:12:11;4.47;;;1.85;;
45476;SDS011;31958;51.756;-2.556;2023-03-01T16:14:39;6.00;;;1.60;;
45476;SDS011;31958;51.756;-2.556;2023-03-01T16:17:04;6.03;;;1.65;;
45476;SDS011;31958;51.756;-2.556;2023-03-01T16:19:30;5.40;;;1.92;;
45476;SDS011;31958;51.756;-2.556;2023-03-01T16:21:55;6.07;;;1.70;;
45476;SDS011;31958;51.756;-2.556;2023-03-01T16:24:21;3.78;;;1.60;;
45476;SDS011;31958;51.756;-2.556;2023-03-01T16:26:46;5.40;;;1.38;;
45476;SDS011;31958;51.756;-2.556;2023-03-01T16:29:12;6.10;;;1.73;;
45476;SDS011;31958;51.756;-2.556;2023-03-01T16:31:37;3.97;;;1.45;;
45476;SDS011;31958;51.756;-2.556;2023-03-01T16:34:03;6.78;;;1.80;;
45476;SDS011;31958;51.756;-2.556;2023-03-01T16:36:28;3.50;;;1.42;;
45476;SDS011;31958;51.756;-2.556;2023-03-01T16:38:54;2.63;;;1.48;;
45476;SDS011;31958;51.756;-2.556;2023-03-01T16:41:21;5.40;;;1.75;;
45476;SDS011;31958;51.756;-2.556;2023-03-01T16:43:47;3.35;;;1.60;;
45476;SDS011;31958;51.756;-2.556;2023-03-01T16:46:15;3.80;;;1.30;;
45476;SDS011;31958;51.756;-2.556;2023-03-01T16:48:43;3.83;;;1.58;;
45476;SDS011;31958;51.756;-2.556;2023-03-01T16:51:09;3.80;;;1.70;;
45476;SDS011;31958;51.756;-2.556;2023-03-01T16:53:35;3.30;;;1.60;;
45476;SDS011;31958;51.756;-2.556;2023-03-01T16:56:02;4.68;;;1.77;;
45476;SDS011;31958;51.756;-2.556;2023-03-01T16:58:29;4.00;;;1.85;;
45476;SDS011;31958;51.756;-2.556;2023-03-01T17:00:55;5.93;;;1.80;;
45476;SDS011;31958;51.756;-2.556;2023-03-01T17:03:24;5.28;;;1.83;;